createdAt,value
2018-11-25T00:00:38.685Z,7.80
2018-11-25T00:03:11.222Z,7.70
2018-11-25T00:05:43.628Z,7.90
2018-11-25T00:08:15.922Z,7.90
2018-11-25T00:10:48.984Z,7.80
2018-11-25T00:13:21.119Z,7.70
2018-11-25T00:15:53.262Z,7.60
2018-11-25T00:18:25.650Z,7.60
2018-11-25T00:20:58.263Z,7.50
2018-11-25T00:23:31.857Z,7.10
2018-11-25T00:26:04.482Z,7.40
2018-11-25T00:28:37.058Z,7.30
2018-11-25T00:31:09.841Z,7.00
2018-11-25T00:33:41.967Z,7.00
2018-11-25T00:36:14.381Z,7.10
2018-11-25T00:38:46.390Z,7.00
2018-11-25T00:41:18.656Z,7.10
2018-11-25T00:43:51.191Z,6.90
2018-11-25T00:46:23.320Z,6.90
2018-11-25T00:48:55.581Z,6.90
2018-11-25T00:51:27.856Z,6.70
2018-11-25T00:54:00.405Z,6.70
2018-11-25T00:56:32.603Z,6.70
2018-11-25T00:59:05.153Z,6.70
2018-11-25T01:01:37.463Z,6.70
2018-11-25T01:04:10.043Z,6.70
2018-11-25T01:06:42.602Z,7.00
2018-11-25T01:09:18.485Z,6.70
2018-11-25T01:11:50.962Z,6.70
2018-11-25T01:14:23.458Z,6.40
2018-11-25T01:16:56.393Z,6.40
2018-11-25T01:19:28.989Z,6.50
2018-11-25T01:22:02.747Z,6.50
2018-11-25T01:24:35.219Z,6.30
2018-11-25T01:27:08.131Z,6.40
2018-11-25T01:29:40.331Z,6.10
2018-11-25T01:32:12.714Z,6.50
2018-11-25T01:34:45.892Z,6.10
2018-11-25T01:37:18.210Z,6.20
2018-11-25T01:39:51.164Z,6.10
2018-11-25T01:42:23.447Z,6.60
2018-11-25T01:44:56.023Z,6.40
2018-11-25T01:47:28.054Z,6.50
2018-11-25T01:50:00.457Z,6.10
2018-11-25T01:52:33.331Z,6.20
2018-11-25T01:55:05.849Z,6.10
2018-11-25T01:57:38.519Z,6.40
2018-11-25T02:00:17.100Z,6.20
2018-11-25T02:02:49.693Z,6.10
2018-11-25T02:05:21.792Z,6.10
2018-11-25T02:07:54.249Z,6.00
2018-11-25T02:10:26.375Z,6.00
2018-11-25T02:12:58.945Z,6.10
2018-11-25T02:15:31.127Z,6.20
2018-11-25T02:18:03.617Z,6.30
2018-11-25T02:20:36.001Z,6.10
2018-11-25T02:23:08.464Z,6.30
2018-11-25T02:25:40.388Z,6.30
2018-11-25T02:28:12.994Z,6.40
2018-11-25T02:30:45.771Z,6.30
2018-11-25T02:33:18.579Z,6.40
2018-11-25T02:35:50.752Z,6.30
2018-11-25T02:38:23.245Z,6.10
2018-11-25T02:40:55.791Z,6.10
2018-11-25T02:43:28.529Z,6.00
2018-11-25T02:46:00.969Z,6.10
2018-11-25T02:48:34.229Z,6.30
2018-11-25T02:51:06.700Z,6.00
2018-11-25T02:53:39.085Z,5.80
2018-11-25T02:56:11.664Z,5.80
2018-11-25T02:58:44.053Z,5.80
2018-11-25T03:01:16.179Z,5.80
2018-11-25T03:03:48.637Z,5.80
2018-11-25T03:06:20.951Z,5.80
2018-11-25T03:08:53.153Z,5.80
2018-11-25T03:11:26.182Z,6.10
2018-11-25T03:13:58.355Z,5.70
2018-11-25T03:16:30.640Z,6.00
2018-11-25T03:19:03.306Z,6.10
2018-11-25T03:21:35.622Z,6.10
2018-11-25T03:24:07.991Z,6.00
2018-11-25T03:26:40.586Z,6.00
2018-11-25T03:29:13.103Z,6.00
2018-11-25T03:31:45.492Z,6.00
2018-11-25T03:34:17.860Z,6.10
2018-11-25T03:36:50.087Z,6.20
2018-11-25T03:39:22.319Z,6.10
2018-11-25T03:41:54.486Z,6.00
2018-11-25T03:44:26.952Z,6.20
2018-11-25T03:46:59.606Z,6.00
2018-11-25T03:49:32.178Z,6.10
2018-11-25T03:52:04.518Z,6.20
2018-11-25T03:54:37.082Z,6.00
2018-11-25T03:57:09.471Z,5.80
2018-11-25T03:59:41.862Z,5.90
2018-11-25T04:02:14.261Z,5.80
2018-11-25T04:04:46.976Z,5.90
2018-11-25T04:07:19.732Z,5.70
2018-11-25T04:09:52.300Z,5.70
2018-11-25T04:12:24.681Z,5.70
2018-11-25T04:14:57.271Z,5.70
2018-11-25T04:17:29.001Z,5.70
2018-11-25T04:20:01.526Z,5.70
2018-11-25T04:22:34.023Z,5.80
2018-11-25T04:25:06.458Z,5.70
2018-11-25T04:27:39.455Z,5.80
2018-11-25T04:30:16.458Z,5.70
2018-11-25T04:32:49.612Z,5.80
2018-11-25T04:35:22.700Z,5.60
2018-11-25T04:37:55.251Z,5.80
2018-11-25T04:40:28.133Z,5.70
2018-11-25T04:43:00.559Z,5.70
2018-11-25T04:45:33.640Z,5.70
2018-11-25T04:48:06.295Z,5.70
2018-11-25T04:50:38.920Z,5.70
2018-11-25T04:53:11.902Z,5.70
2018-11-25T04:55:44.396Z,5.70
2018-11-25T04:58:16.541Z,5.70
2018-11-25T05:00:48.293Z,5.90
2018-11-25T05:03:20.009Z,5.80
2018-11-25T05:05:52.269Z,5.80
2018-11-25T05:08:25.454Z,5.70
2018-11-25T05:10:58.332Z,5.80
2018-11-25T05:13:31.033Z,5.70
2018-11-25T05:16:04.535Z,5.60
2018-11-25T05:18:37.381Z,5.70
2018-11-25T05:21:10.108Z,5.80
2018-11-25T05:23:42.842Z,5.70
2018-11-25T05:26:15.375Z,5.70
2018-11-25T05:28:47.957Z,5.90
2018-11-25T05:31:21.486Z,5.80
2018-11-25T05:33:54.059Z,5.70
2018-11-25T05:36:26.551Z,5.60
2018-11-25T05:38:59.103Z,5.80
2018-11-25T05:41:31.779Z,5.90
2018-11-25T05:44:04.790Z,5.70
2018-11-25T05:46:37.042Z,5.80
2018-11-25T05:49:09.715Z,5.70
2018-11-25T05:51:42.681Z,6.00
2018-11-25T05:54:15.495Z,5.90
2018-11-25T05:56:47.737Z,5.90
2018-11-25T05:59:20.950Z,6.10
2018-11-25T06:01:53.796Z,5.80
2018-11-25T06:04:26.447Z,6.30
2018-11-25T06:06:59.539Z,5.90
2018-11-25T06:09:31.613Z,6.00
2018-11-25T06:12:04.716Z,6.20
2018-11-25T06:14:36.900Z,6.10
2018-11-25T06:17:10.112Z,5.70
2018-11-25T06:19:42.754Z,6.00
2018-11-25T06:22:15.677Z,5.70
2018-11-25T06:24:48.213Z,5.70
2018-11-25T06:27:20.692Z,5.80
2018-11-25T06:29:54.098Z,5.80
2018-11-25T06:32:26.846Z,5.80
2018-11-25T06:34:59.774Z,5.80
2018-11-25T06:37:32.822Z,5.80
2018-11-25T06:40:05.923Z,5.70
2018-11-25T06:42:38.612Z,5.70
2018-11-25T06:45:31.912Z,5.80
2018-11-25T06:48:04.797Z,5.80
2018-11-25T06:50:37.995Z,5.70
2018-11-25T06:53:11.144Z,5.70
2018-11-25T06:55:43.679Z,5.80
2018-11-25T06:58:16.298Z,6.20
2018-11-25T07:00:49.082Z,6.10
2018-11-25T07:03:21.663Z,5.90
2018-11-25T07:05:54.222Z,5.90
2018-11-25T07:08:26.959Z,6.00
2018-11-25T07:10:59.668Z,6.20
2018-11-25T07:13:38.508Z,6.10
2018-11-25T07:16:11.689Z,6.10
2018-11-25T07:18:45.221Z,6.00
2018-11-25T07:21:17.559Z,6.00
2018-11-25T07:23:50.388Z,5.90
2018-11-25T07:26:22.947Z,6.00
2018-11-25T07:28:55.742Z,6.10
2018-11-25T07:31:28.981Z,6.00
2018-11-25T07:34:01.362Z,6.10
2018-11-25T07:36:34.190Z,6.30
2018-11-25T07:39:06.981Z,6.00
2018-11-25T07:41:39.462Z,6.00
2018-11-25T07:44:12.509Z,6.10
2018-11-25T07:46:46.447Z,6.00
2018-11-25T07:49:18.715Z,6.10
2018-11-25T07:51:51.268Z,6.10
2018-11-25T07:54:24.026Z,6.00
2018-11-25T07:56:57.166Z,6.00
2018-11-25T07:59:29.854Z,6.00
2018-11-25T08:02:02.812Z,6.10
2018-11-25T08:04:35.908Z,6.00
2018-11-25T08:07:08.616Z,5.90
2018-11-25T08:09:40.966Z,6.00
2018-11-25T08:12:13.090Z,6.10
2018-11-25T08:14:45.705Z,6.10
2018-11-25T08:17:18.076Z,6.10
2018-11-25T08:19:50.222Z,6.00
2018-11-25T08:22:22.328Z,6.10
2018-11-25T08:24:54.774Z,6.10
2018-11-25T08:27:26.881Z,6.20
2018-11-25T08:29:59.044Z,6.00
2018-11-25T08:32:31.561Z,6.00
2018-11-25T08:35:03.985Z,5.80
2018-11-25T08:37:36.504Z,5.80
2018-11-25T08:40:15.524Z,5.80
2018-11-25T08:42:48.418Z,5.80
2018-11-25T08:45:21.072Z,5.80
2018-11-25T08:47:53.445Z,5.80
2018-11-25T08:50:25.809Z,5.80
2018-11-25T08:52:58.184Z,5.90
2018-11-25T08:55:30.550Z,5.70
2018-11-25T08:58:02.963Z,5.70
2018-11-25T09:00:35.411Z,5.70
2018-11-25T09:03:07.869Z,5.50
2018-11-25T09:05:40.239Z,5.70
2018-11-25T09:08:12.630Z,5.40
2018-11-25T09:10:44.994Z,5.50
2018-11-25T09:13:18.924Z,5.30
2018-11-25T09:15:51.487Z,5.50
2018-11-25T09:18:24.321Z,5.40
2018-11-25T09:20:56.835Z,5.50
2018-11-25T09:23:29.218Z,5.50
2018-11-25T09:26:01.258Z,5.40
2018-11-25T09:28:34.052Z,5.50
2018-11-25T09:31:06.721Z,5.50
2018-11-25T09:33:39.105Z,5.40
2018-11-25T09:36:11.276Z,5.30
2018-11-25T09:38:43.614Z,5.30
2018-11-25T09:41:16.024Z,5.30
2018-11-25T09:43:48.399Z,5.40
2018-11-25T09:46:20.777Z,5.40
2018-11-25T09:48:52.894Z,5.30
2018-11-25T09:51:25.076Z,5.20
2018-11-25T09:53:57.512Z,5.10
2018-11-25T09:56:29.749Z,5.40
2018-11-25T09:59:02.075Z,5.20
2018-11-25T10:01:34.502Z,5.20
2018-11-25T10:04:07.255Z,5.10
2018-11-25T10:06:39.550Z,5.10
2018-11-25T10:09:12.195Z,5.20
2018-11-25T10:11:44.669Z,5.20
2018-11-25T10:14:16.853Z,4.80
2018-11-25T10:16:49.317Z,4.80
2018-11-25T10:19:21.665Z,4.80
2018-11-25T10:21:53.920Z,4.90
2018-11-25T10:24:26.224Z,4.90
2018-11-25T10:26:58.617Z,4.90
2018-11-25T10:29:31.018Z,4.80
2018-11-25T10:32:03.332Z,5.00
2018-11-25T10:34:35.951Z,4.90
2018-11-25T10:37:08.510Z,4.70
2018-11-25T10:39:40.717Z,4.90
2018-11-25T10:42:13.034Z,4.90
2018-11-25T10:44:45.429Z,4.70
2018-11-25T10:47:17.794Z,4.80
2018-11-25T10:49:49.763Z,4.90
2018-11-25T10:52:22.292Z,4.40
2018-11-25T10:54:54.549Z,4.60
2018-11-25T10:57:26.806Z,4.70
2018-11-25T11:00:00.536Z,4.50
2018-11-25T11:02:37.077Z,4.60
2018-11-25T11:05:10.090Z,4.50
2018-11-25T11:07:45.611Z,4.60
2018-11-25T11:10:17.829Z,4.10
2018-11-25T11:12:50.400Z,4.20
2018-11-25T11:15:22.534Z,4.10
2018-11-25T11:17:55.032Z,4.10
2018-11-25T11:20:27.290Z,4.10
2018-11-25T11:23:00.118Z,3.80
2018-11-25T11:25:32.449Z,4.00
2018-11-25T11:28:04.972Z,3.80
2018-11-25T11:30:37.185Z,4.10
2018-11-25T11:33:09.148Z,4.10
2018-11-25T11:35:41.609Z,4.20
2018-11-25T11:38:14.220Z,4.20
2018-11-25T11:40:46.554Z,4.30
2018-11-25T11:43:18.772Z,4.30
2018-11-25T11:45:51.313Z,4.20
2018-11-25T11:48:23.737Z,4.20
2018-11-25T11:50:55.793Z,4.50
2018-11-25T11:53:28.089Z,4.60
2018-11-25T11:56:00.285Z,4.60
2018-11-25T11:58:32.755Z,4.60
2018-11-25T12:01:05.098Z,4.80
2018-11-25T12:03:37.508Z,4.80
2018-11-25T12:06:09.890Z,4.80
2018-11-25T12:08:42.218Z,4.90
2018-11-25T12:11:14.374Z,4.90
2018-11-25T12:13:47.127Z,4.80
2018-11-25T12:16:19.350Z,4.80
2018-11-25T12:18:51.929Z,4.90
2018-11-25T12:21:24.333Z,4.80
2018-11-25T12:23:56.452Z,4.80
2018-11-25T12:26:28.783Z,4.80
2018-11-25T12:29:00.932Z,4.70
2018-11-25T12:31:33.269Z,5.10
2018-11-25T12:34:05.657Z,5.10
2018-11-25T12:36:38.198Z,5.20
2018-11-25T12:39:12.138Z,4.80
2018-11-25T12:41:44.752Z,4.90
2018-11-25T12:44:16.981Z,4.80
2018-11-25T12:46:49.139Z,4.90
2018-11-25T12:49:21.213Z,4.80
2018-11-25T12:51:53.868Z,4.80
2018-11-25T12:54:26.215Z,4.40
2018-11-25T12:56:58.362Z,4.60
2018-11-25T12:59:30.596Z,4.40
2018-11-25T13:02:03.066Z,4.60
2018-11-25T13:04:35.500Z,4.60
2018-11-25T13:07:07.790Z,4.60
2018-11-25T13:09:40.194Z,4.50
2018-11-25T13:12:12.564Z,4.50
2018-11-25T13:14:44.747Z,4.40
2018-11-25T13:17:17.339Z,4.30
2018-11-25T13:19:49.691Z,4.60
2018-11-25T13:22:22.266Z,4.30
2018-11-25T13:24:54.654Z,4.30
2018-11-25T13:27:27.173Z,4.00
2018-11-25T13:29:59.359Z,4.30
2018-11-25T13:32:31.604Z,4.00
2018-11-25T13:35:03.769Z,4.10
2018-11-25T13:37:36.459Z,4.00
2018-11-25T13:40:10.073Z,4.00
2018-11-25T13:42:42.598Z,3.80
2018-11-25T13:45:15.144Z,3.80
2018-11-25T13:47:47.314Z,3.70
2018-11-25T13:50:19.770Z,3.70
2018-11-25T13:52:52.146Z,3.50
2018-11-25T13:55:26.554Z,3.60
2018-11-25T13:57:58.870Z,3.50
2018-11-25T14:00:42.886Z,3.30
2018-11-25T14:03:16.897Z,3.50
2018-11-25T14:05:53.139Z,3.40
2018-11-25T14:08:21.883Z,3.20
2018-11-25T14:11:01.760Z,3.30
2018-11-25T14:13:34.031Z,3.10
2018-11-25T14:16:06.864Z,3.20
2018-11-25T14:18:39.295Z,2.80
2018-11-25T14:21:11.617Z,3.00
2018-11-25T14:23:44.029Z,2.90
2018-11-25T14:26:27.126Z,2.60
2018-11-25T14:28:59.231Z,2.40
2018-11-25T14:31:31.723Z,2.40
2018-11-25T14:34:04.019Z,2.30
2018-11-25T14:36:36.463Z,2.40
2018-11-25T14:39:12.610Z,2.30
2018-11-25T14:41:44.904Z,2.10
2018-11-25T14:44:17.112Z,2.10
2018-11-25T14:46:49.696Z,2.40
2018-11-25T14:49:21.885Z,2.10
2018-11-25T14:51:54.380Z,2.40
2018-11-25T14:54:26.815Z,2.10
2018-11-25T14:56:59.246Z,2.00
2018-11-25T14:59:31.868Z,2.20
2018-11-25T15:02:04.814Z,1.90
2018-11-25T15:04:37.315Z,2.10
2018-11-25T15:07:09.576Z,1.90
2018-11-25T15:09:47.794Z,2.10
2018-11-25T15:12:20.098Z,1.90
2018-11-25T15:14:53.877Z,2.00
2018-11-25T15:17:25.380Z,1.90
2018-11-25T15:19:57.889Z,1.70
2018-11-25T15:22:30.091Z,1.80
2018-11-25T15:25:02.613Z,1.60
2018-11-25T15:27:35.149Z,1.60
2018-11-25T15:30:09.344Z,1.60
2018-11-25T15:32:41.649Z,1.80
2018-11-25T15:35:14.554Z,1.80
2018-11-25T15:37:48.362Z,1.70
2018-11-25T15:40:22.035Z,1.60
2018-11-25T15:42:54.271Z,1.40
2018-11-25T15:45:26.480Z,1.50
2018-11-25T15:48:04.095Z,1.50
2018-11-25T15:50:36.525Z,1.50
2018-11-25T15:53:09.469Z,1.60
2018-11-25T15:55:41.733Z,1.70
2018-11-25T15:58:14.087Z,1.60
2018-11-25T16:00:46.487Z,1.60
2018-11-25T16:03:19.131Z,1.60
2018-11-25T16:05:56.285Z,1.60
2018-11-25T16:08:28.350Z,1.60
2018-11-25T16:11:00.651Z,1.60
2018-11-25T16:13:32.889Z,1.90
2018-11-25T16:16:05.627Z,1.80
2018-11-25T16:18:38.014Z,1.90
2018-11-25T16:21:10.426Z,1.80
2018-11-25T16:23:42.774Z,1.90
2018-11-25T16:26:22.638Z,2.20
2018-11-25T16:28:56.910Z,2.00
2018-11-25T16:31:29.349Z,2.00
2018-11-25T16:34:03.412Z,2.20
2018-11-25T16:36:35.656Z,2.10
2018-11-25T16:39:09.664Z,2.10
2018-11-25T16:41:41.897Z,2.30
2018-11-25T16:44:14.381Z,2.40
2018-11-25T16:46:46.642Z,2.80
2018-11-25T16:49:19.023Z,3.00
2018-11-25T16:51:51.318Z,3.90
2018-11-25T16:54:23.690Z,4.30
2018-11-25T16:56:56.108Z,5.20
2018-11-25T16:59:28.683Z,5.70
2018-11-25T17:02:01.220Z,6.10
2018-11-25T17:04:33.597Z,7.00
2018-11-25T17:07:05.935Z,7.40
2018-11-25T17:09:38.422Z,7.70
2018-11-25T17:12:10.661Z,7.50
2018-11-25T17:14:42.992Z,8.00
2018-11-25T17:17:15.201Z,8.10
2018-11-25T17:19:47.478Z,8.30
2018-11-25T17:22:19.480Z,8.40
2018-11-25T17:24:52.107Z,8.00
2018-11-25T17:27:24.427Z,7.50
2018-11-25T17:29:57.035Z,7.50
2018-11-25T17:32:29.291Z,7.90
2018-11-25T17:35:01.610Z,8.10
2018-11-25T17:37:34.010Z,8.30
2018-11-25T17:40:06.876Z,8.20
2018-11-25T17:42:39.603Z,8.40
2018-11-25T17:45:15.274Z,8.10
2018-11-25T17:47:47.650Z,7.90
2018-11-25T17:50:20.807Z,7.90
2018-11-25T17:52:53.298Z,7.40
2018-11-25T17:55:26.578Z,7.40
2018-11-25T17:57:58.544Z,7.90
2018-11-25T18:00:39.786Z,7.90
2018-11-25T18:03:24.225Z,8.30
2018-11-25T18:05:56.592Z,8.80
2018-11-25T18:08:29.364Z,9.10
2018-11-25T18:11:01.529Z,9.30
2018-11-25T18:13:35.261Z,9.70
2018-11-25T18:16:09.229Z,9.60
2018-11-25T18:19:43.941Z,9.90
2018-11-25T18:22:18.910Z,10.20
2018-11-25T18:24:51.084Z,10.10
2018-11-25T18:27:23.218Z,10.10
2018-11-25T18:29:55.575Z,9.90
2018-11-25T18:32:28.016Z,10.00
2018-11-25T18:35:00.320Z,9.50
2018-11-25T18:37:32.522Z,9.20
2018-11-25T18:40:05.044Z,9.20
2018-11-25T18:42:37.073Z,9.20
2018-11-25T18:45:13.971Z,9.50
2018-11-25T18:47:47.051Z,9.90
2018-11-25T18:50:19.322Z,10.30
2018-11-25T18:52:52.828Z,10.90
2018-11-25T18:55:22.568Z,10.70
2018-11-25T18:57:55.682Z,10.80
2018-11-25T19:01:05.837Z,10.80
2018-11-25T19:03:38.137Z,10.90
2018-11-25T19:06:10.589Z,11.10
2018-11-25T19:08:43.700Z,11.30
2018-11-25T19:11:15.836Z,11.40
2018-11-25T19:13:48.139Z,11.50
2018-11-25T19:16:20.355Z,11.50
2018-11-25T19:18:52.782Z,11.20
2018-11-25T19:21:25.062Z,11.00
2018-11-25T19:23:57.476Z,11.40
2018-11-25T19:26:29.827Z,10.80
2018-11-25T19:29:01.951Z,10.90
2018-11-25T19:31:33.890Z,10.80
2018-11-25T19:34:06.388Z,10.30
2018-11-25T19:36:38.715Z,10.50
2018-11-25T19:39:12.757Z,10.30
2018-11-25T19:41:45.057Z,10.40
2018-11-25T19:44:17.395Z,10.30
2018-11-25T19:46:49.849Z,10.20
2018-11-25T19:49:22.688Z,10.30
2018-11-25T19:51:54.966Z,9.90
2018-11-25T19:54:27.321Z,9.90
2018-11-25T19:56:59.473Z,10.00
2018-11-25T19:59:32.110Z,9.90
2018-11-25T20:02:05.092Z,10.00
2018-11-25T20:04:37.509Z,9.90
2018-11-25T20:07:10.435Z,10.00
2018-11-25T20:09:43.010Z,9.80
2018-11-25T20:12:15.168Z,9.90
2018-11-25T20:14:47.757Z,10.00
2018-11-25T20:17:24.692Z,9.90
2018-11-25T20:19:56.678Z,9.80
2018-11-25T20:22:28.897Z,10.20
2018-11-25T20:25:02.164Z,10.30
2018-11-25T20:27:52.572Z,10.30
2018-11-25T20:30:26.716Z,10.30
2018-11-25T20:33:04.089Z,10.20
2018-11-25T20:35:36.279Z,10.40
2018-11-25T20:38:13.280Z,10.00
2018-11-25T20:40:45.662Z,10.00
2018-11-25T20:43:18.166Z,9.90
2018-11-25T20:45:55.097Z,10.00
2018-11-25T20:48:27.351Z,9.80
2018-11-25T20:50:59.852Z,10.30
2018-11-25T20:53:36.808Z,10.40
2018-11-25T20:56:09.383Z,10.40
2018-11-25T20:58:41.764Z,10.50
2018-11-25T21:01:14.382Z,10.50
2018-11-25T21:03:46.889Z,10.60
2018-11-25T21:06:19.484Z,10.50
2018-11-25T21:08:51.833Z,10.50
2018-11-25T21:11:24.054Z,10.50
2018-11-25T21:13:56.476Z,10.70
2018-11-25T21:16:28.604Z,10.40
2018-11-25T21:19:00.674Z,10.40
2018-11-25T21:21:32.771Z,10.50
2018-11-25T21:24:05.678Z,10.60
2018-11-25T21:26:37.787Z,10.70
2018-11-25T21:29:10.127Z,10.70
2018-11-25T21:31:42.721Z,10.70
2018-11-25T21:34:15.104Z,10.70
2018-11-25T21:36:47.731Z,10.90
2018-11-25T21:39:20.136Z,10.60
2018-11-25T21:41:52.980Z,10.80
2018-11-25T21:44:25.377Z,10.60
2018-11-25T21:46:57.672Z,10.60
2018-11-25T21:49:30.121Z,10.60
2018-11-25T21:52:02.316Z,10.50
2018-11-25T21:54:34.715Z,10.60
2018-11-25T21:57:07.699Z,10.60
2018-11-25T21:59:39.764Z,10.60
2018-11-25T22:02:12.428Z,10.60
2018-11-25T22:04:45.151Z,10.90
2018-11-25T22:07:17.331Z,10.70
2018-11-25T22:09:49.660Z,10.70
2018-11-25T22:12:22.106Z,10.60
2018-11-25T22:14:54.585Z,10.50
2018-11-25T22:17:26.851Z,10.80
2018-11-25T22:19:59.354Z,10.20
2018-11-25T22:22:31.337Z,10.30
2018-11-25T22:25:03.737Z,10.30
2018-11-25T22:27:35.938Z,10.30
2018-11-25T22:30:12.134Z,10.20
2018-11-25T22:32:44.409Z,10.10
2018-11-25T22:35:17.871Z,10.10
2018-11-25T22:37:50.361Z,10.10
2018-11-25T22:40:22.884Z,10.00
2018-11-25T22:42:55.149Z,9.90
2018-11-25T22:45:27.513Z,9.90
2018-11-25T22:47:59.993Z,9.90
2018-11-25T22:50:32.504Z,9.90
2018-11-25T22:53:04.830Z,9.90
2018-11-25T22:55:37.340Z,9.90
2018-11-25T22:58:09.521Z,9.90
2018-11-25T23:00:41.830Z,9.90
2018-11-25T23:03:14.187Z,9.90
2018-11-25T23:05:56.014Z,10.10
2018-11-25T23:08:28.642Z,9.80
2018-11-25T23:11:01.146Z,9.90
2018-11-25T23:13:33.805Z,9.90
2018-11-25T23:16:06.103Z,10.00
2018-11-25T23:18:38.355Z,9.90
2018-11-25T23:21:10.524Z,9.80
2018-11-25T23:23:42.694Z,10.10
2018-11-25T23:26:14.878Z,9.90
2018-11-25T23:28:47.436Z,10.00
2018-11-25T23:31:19.613Z,9.80
2018-11-25T23:33:52.202Z,9.80
2018-11-25T23:36:24.574Z,9.80
2018-11-25T23:38:57.263Z,9.80
2018-11-25T23:41:29.521Z,9.90
2018-11-25T23:44:01.852Z,9.80
2018-11-25T23:46:34.212Z,9.70
2018-11-25T23:49:06.512Z,9.90
2018-11-25T23:51:39.046Z,9.70
2018-11-25T23:54:11.165Z,9.70
2018-11-25T23:56:43.713Z,9.60
2018-11-25T23:59:15.745Z,9.60
